Terminal Aerodrome Forecast
Issued by NWS

Home | Current Version | Previous Version | Text Only | Print | Product List | Glossary On
Versions: 1 2 3 4 5 6 7 8 9 10 11 12 13 14 15 16 17 18 19 20 21 22 23 24 25 26
000
FTUS46 KSGX 110900 AAA
TAFSAN
TAF AMD
KSAN 110905Z 1109/1212 VRB04KT P6SM OVC016
     FM111600 VRB04KT P6SM SCT015
     FM111800 29011KT P6SM SKC
     FM120200 VRB04KT P6SM SCT015
     FM120600 VRB04KT P6SM OVC015=

USA.gov is the U.S. government's official web portal to all federal, state and local government web resources and services.